sensor_id;sensor_type;location;lat;lon;timestamp;temperature;humidity
23411;DHT22;11878;51.774;7.220;2022-08-19T00:01:31;17.90;99.90
23411;DHT22;11878;51.774;7.220;2022-08-19T00:04:38;17.90;99.90
23411;DHT22;11878;51.774;7.220;2022-08-19T00:07:42;17.80;99.90
23411;DHT22;11878;51.774;7.220;2022-08-19T00:10:44;17.80;99.90
23411;DHT22;11878;51.774;7.220;2022-08-19T00:13:47;17.80;99.90
23411;DHT22;11878;51.774;7.220;2022-08-19T00:16:50;17.80;99.90
23411;DHT22;11878;51.774;7.220;2022-08-19T00:19:55;17.80;99.90
23411;DHT22;11878;51.774;7.220;2022-08-19T00:22:57;17.70;99.90
23411;DHT22;11878;51.774;7.220;2022-08-19T00:25:59;17.70;99.90
23411;DHT22;11878;51.774;7.220;2022-08-19T00:29:01;17.80;99.90
23411;DHT22;11878;51.774;7.220;2022-08-19T00:32:04;17.70;99.90
23411;DHT22;11878;51.774;7.220;2022-08-19T00:35:06;17.70;99.90
23411;DHT22;11878;51.774;7.220;2022-08-19T00:38:08;17.50;99.90
23411;DHT22;11878;51.774;7.220;2022-08-19T00:41:13;17.50;99.90
23411;DHT22;11878;51.774;7.220;2022-08-19T00:44:23;17.50;99.90
23411;DHT22;11878;51.774;7.220;2022-08-19T00:47:27;17.40;99.90
23411;DHT22;11878;51.774;7.220;2022-08-19T00:50:32;17.50;99.90
23411;DHT22;11878;51.774;7.220;2022-08-19T00:53:35;17.40;99.90
23411;DHT22;11878;51.774;7.220;2022-08-19T00:56:37;17.40;99.90
23411;DHT22;11878;51.774;7.220;2022-08-19T00:59:46;17.40;99.90
23411;DHT22;11878;51.774;7.220;2022-08-19T01:03:07;17.30;99.90
23411;DHT22;11878;51.774;7.220;2022-08-19T01:06:09;17.30;99.90
23411;DHT22;11878;51.774;7.220;2022-08-19T01:09:11;17.40;99.90
23411;DHT22;11878;51.774;7.220;2022-08-19T01:12:13;17.20;99.90
23411;DHT22;11878;51.774;7.220;2022-08-19T01:15:19;17.20;99.90
23411;DHT22;11878;51.774;7.220;2022-08-19T01:18:23;17.30;99.90
23411;DHT22;11878;51.774;7.220;2022-08-19T01:21:31;17.20;99.90
23411;DHT22;11878;51.774;7.220;2022-08-19T01:24:34;17.20;99.90
23411;DHT22;11878;51.774;7.220;2022-08-19T01:27:49;17.10;99.90
23411;DHT22;11878;51.774;7.220;2022-08-19T01:30:55;17.20;99.90
23411;DHT22;11878;51.774;7.220;2022-08-19T01:33:57;17.20;99.90
23411;DHT22;11878;51.774;7.220;2022-08-19T01:37:00;17.10;99.90
23411;DHT22;11878;51.774;7.220;2022-08-19T01:40:03;17.20;99.90
23411;DHT22;11878;51.774;7.220;2022-08-19T01:43:10;17.10;99.90
23411;DHT22;11878;51.774;7.220;2022-08-19T01:46:12;17.20;99.90
23411;DHT22;11878;51.774;7.220;2022-08-19T01:49:14;17.10;99.90
23411;DHT22;11878;51.774;7.220;2022-08-19T01:52:19;17.10;99.90
23411;DHT22;11878;51.774;7.220;2022-08-19T01:55:22;17.00;99.90
23411;DHT22;11878;51.774;7.220;2022-08-19T01:58:30;17.00;99.90
23411;DHT22;11878;51.774;7.220;2022-08-19T02:01:33;16.90;99.90
23411;DHT22;11878;51.774;7.220;2022-08-19T02:04:36;16.90;99.90
23411;DHT22;11878;51.774;7.220;2022-08-19T02:07:41;16.80;99.90
23411;DHT22;11878;51.774;7.220;2022-08-19T02:10:44;16.80;99.90
23411;DHT22;11878;51.774;7.220;2022-08-19T02:13:45;16.70;99.90
23411;DHT22;11878;51.774;7.220;2022-08-19T02:16:47;16.80;99.90
23411;DHT22;11878;51.774;7.220;2022-08-19T02:19:49;16.70;99.90
23411;DHT22;11878;51.774;7.220;2022-08-19T02:22:51;16.70;99.90
23411;DHT22;11878;51.774;7.220;2022-08-19T02:25:54;16.60;99.90
23411;DHT22;11878;51.774;7.220;2022-08-19T02:28:56;16.50;99.90
23411;DHT22;11878;51.774;7.220;2022-08-19T02:31:57;16.60;99.90
23411;DHT22;11878;51.774;7.220;2022-08-19T02:34:59;16.70;99.90
23411;DHT22;11878;51.774;7.220;2022-08-19T02:38:01;16.60;99.90
23411;DHT22;11878;51.774;7.220;2022-08-19T02:41:27;16.60;99.90
23411;DHT22;11878;51.774;7.220;2022-08-19T02:44:29;16.60;99.90
23411;DHT22;11878;51.774;7.220;2022-08-19T02:47:32;16.60;99.90
23411;DHT22;11878;51.774;7.220;2022-08-19T02:50:38;16.60;99.90
23411;DHT22;11878;51.774;7.220;2022-08-19T02:53:40;16.50;99.90
23411;DHT22;11878;51.774;7.220;2022-08-19T02:56:43;16.70;99.90
23411;DHT22;11878;51.774;7.220;2022-08-19T02:59:45;16.70;99.90
23411;DHT22;11878;51.774;7.220;2022-08-19T03:02:47;16.70;99.90
23411;DHT22;11878;51.774;7.220;2022-08-19T03:05:50;16.70;99.90
23411;DHT22;11878;51.774;7.220;2022-08-19T03:08:58;16.70;99.90
23411;DHT22;11878;51.774;7.220;2022-08-19T03:11:59;16.70;99.90
23411;DHT22;11878;51.774;7.220;2022-08-19T03:15:01;16.60;99.90
23411;DHT22;11878;51.774;7.220;2022-08-19T03:18:03;16.50;99.90
23411;DHT22;11878;51.774;7.220;2022-08-19T03:21:06;16.40;99.90
23411;DHT22;11878;51.774;7.220;2022-08-19T03:24:14;16.50;99.90
23411;DHT22;11878;51.774;7.220;2022-08-19T03:27:16;16.40;99.90
23411;DHT22;11878;51.774;7.220;2022-08-19T03:30:19;16.30;99.90
23411;DHT22;11878;51.774;7.220;2022-08-19T03:33:24;16.30;99.90
23411;DHT22;11878;51.774;7.220;2022-08-19T03:36:29;16.30;99.90
23411;DHT22;11878;51.774;7.220;2022-08-19T03:39:31;16.30;99.90
23411;DHT22;11878;51.774;7.220;2022-08-19T03:42:33;16.30;99.90
23411;DHT22;11878;51.774;7.220;2022-08-19T03:45:59;16.40;99.90
23411;DHT22;11878;51.774;7.220;2022-08-19T03:49:04;16.40;99.90
23411;DHT22;11878;51.774;7.220;2022-08-19T03:52:08;16.30;99.90
23411;DHT22;11878;51.774;7.220;2022-08-19T03:55:10;16.30;99.90
23411;DHT22;11878;51.774;7.220;2022-08-19T03:58:12;16.30;99.90
23411;DHT22;11878;51.774;7.220;2022-08-19T04:01:18;16.20;99.90
23411;DHT22;11878;51.774;7.220;2022-08-19T04:04:20;16.30;99.90
23411;DHT22;11878;51.774;7.220;2022-08-19T04:07:22;16.30;99.90
23411;DHT22;11878;51.774;7.220;2022-08-19T04:10:25;16.30;99.90
23411;DHT22;11878;51.774;7.220;2022-08-19T04:13:26;16.30;99.90
23411;DHT22;11878;51.774;7.220;2022-08-19T04:16:29;16.30;99.90
23411;DHT22;11878;51.774;7.220;2022-08-19T04:19:36;16.30;99.90
23411;DHT22;11878;51.774;7.220;2022-08-19T04:22:38;16.20;99.90
23411;DHT22;11878;51.774;7.220;2022-08-19T04:25:42;16.30;99.90
23411;DHT22;11878;51.774;7.220;2022-08-19T04:28:44;16.30;99.90
23411;DHT22;11878;51.774;7.220;2022-08-19T04:31:46;16.20;99.90
23411;DHT22;11878;51.774;7.220;2022-08-19T04:34:48;16.10;99.90
23411;DHT22;11878;51.774;7.220;2022-08-19T04:38:11;16.10;99.90
23411;DHT22;11878;51.774;7.220;2022-08-19T04:41:13;16.20;99.90
23411;DHT22;11878;51.774;7.220;2022-08-19T04:44:34;16.30;99.90
23411;DHT22;11878;51.774;7.220;2022-08-19T04:47:42;16.30;99.90
23411;DHT22;11878;51.774;7.220;2022-08-19T04:50:59;16.40;99.90
23411;DHT22;11878;51.774;7.220;2022-08-19T04:54:01;16.40;99.90
23411;DHT22;11878;51.774;7.220;2022-08-19T04:57:03;16.40;99.90
23411;DHT22;11878;51.774;7.220;2022-08-19T05:00:09;16.60;99.90
23411;DHT22;11878;51.774;7.220;2022-08-19T05:03:11;16.50;99.90
23411;DHT22;11878;51.774;7.220;2022-08-19T05:06:14;16.50;99.90
23411;DHT22;11878;51.774;7.220;2022-08-19T05:09:16;16.50;99.90
23411;DHT22;11878;51.774;7.220;2022-08-19T05:12:18;16.40;99.90
23411;DHT22;11878;51.774;7.220;2022-08-19T05:15:20;16.40;99.90
23411;DHT22;11878;51.774;7.220;2022-08-19T05:18:22;16.50;99.90
23411;DHT22;11878;51.774;7.220;2022-08-19T05:21:43;16.50;99.90
23411;DHT22;11878;51.774;7.220;2022-08-19T05:25:10;16.60;99.90
23411;DHT22;11878;51.774;7.220;2022-08-19T05:28:14;16.70;99.90
23411;DHT22;11878;51.774;7.220;2022-08-19T05:31:16;16.70;99.90
23411;DHT22;11878;51.774;7.220;2022-08-19T05:34:19;16.70;99.90
23411;DHT22;11878;51.774;7.220;2022-08-19T05:37:23;16.80;99.90
23411;DHT22;11878;51.774;7.220;2022-08-19T05:40:28;16.90;99.90
23411;DHT22;11878;51.774;7.220;2022-08-19T05:43:30;17.10;99.90
23411;DHT22;11878;51.774;7.220;2022-08-19T05:46:32;17.20;99.90
23411;DHT22;11878;51.774;7.220;2022-08-19T05:49:34;17.10;99.90
23411;DHT22;11878;51.774;7.220;2022-08-19T05:52:37;17.10;99.90
23411;DHT22;11878;51.774;7.220;2022-08-19T05:55:44;17.20;99.90
23411;DHT22;11878;51.774;7.220;2022-08-19T05:58:46;17.30;99.90
23411;DHT22;11878;51.774;7.220;2022-08-19T06:01:49;17.40;99.90
23411;DHT22;11878;51.774;7.220;2022-08-19T06:04:52;17.40;99.90
23411;DHT22;11878;51.774;7.220;2022-08-19T06:07:53;17.50;99.90
23411;DHT22;11878;51.774;7.220;2022-08-19T06:10:56;17.50;99.90
23411;DHT22;11878;51.774;7.220;2022-08-19T06:14:01;17.60;99.90
23411;DHT22;11878;51.774;7.220;2022-08-19T06:17:03;17.70;99.90
23411;DHT22;11878;51.774;7.220;2022-08-19T06:20:10;17.90;99.90
23411;DHT22;11878;51.774;7.220;2022-08-19T06:23:13;18.00;99.90
23411;DHT22;11878;51.774;7.220;2022-08-19T06:26:18;18.10;99.90
23411;DHT22;11878;51.774;7.220;2022-08-19T06:29:26;18.20;99.90
23411;DHT22;11878;51.774;7.220;2022-08-19T06:32:28;18.40;99.90
23411;DHT22;11878;51.774;7.220;2022-08-19T06:35:30;18.40;99.90
23411;DHT22;11878;51.774;7.220;2022-08-19T06:38:32;18.50;99.90
23411;DHT22;11878;51.774;7.220;2022-08-19T06:41:41;18.60;99.90
23411;DHT22;11878;51.774;7.220;2022-08-19T06:44:52;18.60;99.90
23411;DHT22;11878;51.774;7.220;2022-08-19T06:47:54;18.70;99.90
23411;DHT22;11878;51.774;7.220;2022-08-19T06:50:57;18.90;99.90
23411;DHT22;11878;51.774;7.220;2022-08-19T06:54:00;19.00;99.90
23411;DHT22;11878;51.774;7.220;2022-08-19T06:57:01;19.30;99.90
23411;DHT22;11878;51.774;7.220;2022-08-19T07:00:05;19.40;99.90
23411;DHT22;11878;51.774;7.220;2022-08-19T07:03:13;19.50;99.90
23411;DHT22;11878;51.774;7.220;2022-08-19T07:06:17;19.70;99.90
23411;DHT22;11878;51.774;7.220;2022-08-19T07:09:41;19.80;99.90
23411;DHT22;11878;51.774;7.220;2022-08-19T07:12:44;19.90;99.90
23411;DHT22;11878;51.774;7.220;2022-08-19T07:15:46;20.00;99.90
23411;DHT22;11878;51.774;7.220;2022-08-19T07:18:50;20.30;99.90
23411;DHT22;11878;51.774;7.220;2022-08-19T07:21:51;20.40;99.90
23411;DHT22;11878;51.774;7.220;2022-08-19T07:24:54;20.60;99.90
23411;DHT22;11878;51.774;7.220;2022-08-19T07:27:57;20.50;99.90
23411;DHT22;11878;51.774;7.220;2022-08-19T07:31:02;20.50;99.90
23411;DHT22;11878;51.774;7.220;2022-08-19T07:34:08;20.50;99.90
23411;DHT22;11878;51.774;7.220;2022-08-19T07:37:10;20.60;99.90
23411;DHT22;11878;51.774;7.220;2022-08-19T07:40:13;20.80;99.90
23411;DHT22;11878;51.774;7.220;2022-08-19T07:43:15;21.00;99.90
23411;DHT22;11878;51.774;7.220;2022-08-19T07:46:19;21.30;99.90
23411;DHT22;11878;51.774;7.220;2022-08-19T07:49:22;21.30;99.90
23411;DHT22;11878;51.774;7.220;2022-08-19T07:52:24;21.50;99.90
23411;DHT22;11878;51.774;7.220;2022-08-19T07:55:26;21.40;99.90
23411;DHT22;11878;51.774;7.220;2022-08-19T07:58:45;21.70;99.90
23411;DHT22;11878;51.774;7.220;2022-08-19T08:01:47;21.70;99.90
23411;DHT22;11878;51.774;7.220;2022-08-19T08:04:50;21.70;99.90
23411;DHT22;11878;51.774;7.220;2022-08-19T08:08:13;21.70;99.90
23411;DHT22;11878;51.774;7.220;2022-08-19T08:11:34;21.70;99.90
23411;DHT22;11878;51.774;7.220;2022-08-19T08:14:42;21.80;99.90
23411;DHT22;11878;51.774;7.220;2022-08-19T08:17:47;21.70;99.90
23411;DHT22;11878;51.774;7.220;2022-08-19T08:20:52;21.70;99.90
23411;DHT22;11878;51.774;7.220;2022-08-19T08:23:54;21.60;99.90
23411;DHT22;11878;51.774;7.220;2022-08-19T08:26:58;21.70;99.90
23411;DHT22;11878;51.774;7.220;2022-08-19T08:30:00;21.70;99.90
23411;DHT22;11878;51.774;7.220;2022-08-19T08:33:03;21.80;99.90
23411;DHT22;11878;51.774;7.220;2022-08-19T08:36:06;21.90;99.90
23411;DHT22;11878;51.774;7.220;2022-08-19T08:39:09;22.10;99.90
23411;DHT22;11878;51.774;7.220;2022-08-19T08:42:22;22.30;99.90
23411;DHT22;11878;51.774;7.220;2022-08-19T08:45:25;22.30;99.90
23411;DHT22;11878;51.774;7.220;2022-08-19T08:48:49;22.50;99.90
23411;DHT22;11878;51.774;7.220;2022-08-19T08:52:06;22.70;99.90
23411;DHT22;11878;51.774;7.220;2022-08-19T08:55:14;22.70;99.90
23411;DHT22;11878;51.774;7.220;2022-08-19T08:58:36;23.00;99.90
23411;DHT22;11878;51.774;7.220;2022-08-19T09:01:43;23.00;99.90
23411;DHT22;11878;51.774;7.220;2022-08-19T09:04:45;23.10;99.90
23411;DHT22;11878;51.774;7.220;2022-08-19T09:08:10;23.20;99.90
23411;DHT22;11878;51.774;7.220;2022-08-19T09:11:25;22.90;99.90
23411;DHT22;11878;51.774;7.220;2022-08-19T09:14:57;23.10;99.90
23411;DHT22;11878;51.774;7.220;2022-08-19T09:18:02;23.20;99.90
23411;DHT22;11878;51.774;7.220;2022-08-19T09:21:07;23.30;99.90
23411;DHT22;11878;51.774;7.220;2022-08-19T09:24:10;23.40;99.90
23411;DHT22;11878;51.774;7.220;2022-08-19T09:27:11;23.40;99.90
23411;DHT22;11878;51.774;7.220;2022-08-19T09:30:23;23.60;99.90
23411;DHT22;11878;51.774;7.220;2022-08-19T09:33:25;23.40;99.90
23411;DHT22;11878;51.774;7.220;2022-08-19T09:36:28;23.40;99.90
23411;DHT22;11878;51.774;7.220;2022-08-19T09:39:36;23.70;99.90
23411;DHT22;11878;51.774;7.220;2022-08-19T09:42:38;23.90;99.90
23411;DHT22;11878;51.774;7.220;2022-08-19T09:45:53;24.20;99.00
23411;DHT22;11878;51.774;7.220;2022-08-19T09:48:57;24.40;97.80
23411;DHT22;11878;51.774;7.220;2022-08-19T09:52:10;24.40;98.10
23411;DHT22;11878;51.774;7.220;2022-08-19T09:55:14;24.50;95.40
23411;DHT22;11878;51.774;7.220;2022-08-19T09:58:17;25.10;95.70
23411;DHT22;11878;51.774;7.220;2022-08-19T10:01:27;25.10;95.90
23411;DHT22;11878;51.774;7.220;2022-08-19T10:04:29;25.10;96.00
23411;DHT22;11878;51.774;7.220;2022-08-19T10:07:50;25.10;96.00
23411;DHT22;11878;51.774;7.220;2022-08-19T10:10:52;25.80;94.70
23411;DHT22;11878;51.774;7.220;2022-08-19T10:13:54;25.00;94.90
23411;DHT22;11878;51.774;7.220;2022-08-19T10:16:56;25.00;93.60
23411;DHT22;11878;51.774;7.220;2022-08-19T10:20:00;24.70;95.40
23411;DHT22;11878;51.774;7.220;2022-08-19T10:23:03;24.60;95.70
23411;DHT22;11878;51.774;7.220;2022-08-19T10:26:07;24.70;95.50
23411;DHT22;11878;51.774;7.220;2022-08-19T10:29:08;24.90;93.80
23411;DHT22;11878;51.774;7.220;2022-08-19T10:32:11;25.30;94.70
23411;DHT22;11878;51.774;7.220;2022-08-19T10:35:14;26.00;94.00
23411;DHT22;11878;51.774;7.220;2022-08-19T10:38:23;26.20;91.20
23411;DHT22;11878;51.774;7.220;2022-08-19T10:41:34;25.50;90.50
23411;DHT22;11878;51.774;7.220;2022-08-19T10:44:37;26.00;91.20
23411;DHT22;11878;51.774;7.220;2022-08-19T10:47:39;26.60;90.30
23411;DHT22;11878;51.774;7.220;2022-08-19T10:50:40;25.70;90.20
23411;DHT22;11878;51.774;7.220;2022-08-19T10:54:03;26.10;89.00
23411;DHT22;11878;51.774;7.220;2022-08-19T10:57:13;26.00;88.80
23411;DHT22;11878;51.774;7.220;2022-08-19T11:00:16;26.10;89.40
23411;DHT22;11878;51.774;7.220;2022-08-19T11:03:17;26.40;87.10
23411;DHT22;11878;51.774;7.220;2022-08-19T11:06:20;26.10;89.00
23411;DHT22;11878;51.774;7.220;2022-08-19T11:09:24;25.70;90.60
23411;DHT22;11878;51.774;7.220;2022-08-19T11:12:37;25.60;90.30
23411;DHT22;11878;51.774;7.220;2022-08-19T11:15:40;25.50;89.40
23411;DHT22;11878;51.774;7.220;2022-08-19T11:18:45;25.70;87.80
23411;DHT22;11878;51.774;7.220;2022-08-19T11:21:48;25.80;84.30
23411;DHT22;11878;51.774;7.220;2022-08-19T11:24:50;25.80;86.10
23411;DHT22;11878;51.774;7.220;2022-08-19T11:27:53;25.90;86.80
23411;DHT22;11878;51.774;7.220;2022-08-19T11:30:55;25.70;89.10
23411;DHT22;11878;51.774;7.220;2022-08-19T11:33:58;25.50;89.10
23411;DHT22;11878;51.774;7.220;2022-08-19T11:37:02;25.50;89.50
23411;DHT22;11878;51.774;7.220;2022-08-19T11:40:05;25.30;89.00
23411;DHT22;11878;51.774;7.220;2022-08-19T11:43:08;25.10;89.50
23411;DHT22;11878;51.774;7.220;2022-08-19T11:46:13;24.90;90.40
23411;DHT22;11878;51.774;7.220;2022-08-19T11:49:16;25.10;87.10
23411;DHT22;11878;51.774;7.220;2022-08-19T11:52:20;25.30;88.10
23411;DHT22;11878;51.774;7.220;2022-08-19T11:55:22;25.40;85.00
23411;DHT22;11878;51.774;7.220;2022-08-19T11:58:24;25.50;82.60
23411;DHT22;11878;51.774;7.220;2022-08-19T12:01:26;25.50;80.80
23411;DHT22;11878;51.774;7.220;2022-08-19T12:04:28;25.40;75.30
23411;DHT22;11878;51.774;7.220;2022-08-19T12:07:29;25.40;78.20
23411;DHT22;11878;51.774;7.220;2022-08-19T12:10:35;25.50;82.10
23411;DHT22;11878;51.774;7.220;2022-08-19T12:13:37;25.60;84.30
23411;DHT22;11878;51.774;7.220;2022-08-19T12:16:40;25.60;83.20
23411;DHT22;11878;51.774;7.220;2022-08-19T12:19:53;25.50;84.70
23411;DHT22;11878;51.774;7.220;2022-08-19T12:22:55;25.70;84.30
23411;DHT22;11878;51.774;7.220;2022-08-19T12:25:57;25.70;82.90
23411;DHT22;11878;51.774;7.220;2022-08-19T12:28:59;26.00;82.80
23411;DHT22;11878;51.774;7.220;2022-08-19T12:32:01;26.00;78.70
23411;DHT22;11878;51.774;7.220;2022-08-19T12:35:06;26.20;78.20
23411;DHT22;11878;51.774;7.220;2022-08-19T12:38:08;26.10;77.60
23411;DHT22;11878;51.774;7.220;2022-08-19T12:41:13;26.30;77.30
23411;DHT22;11878;51.774;7.220;2022-08-19T12:44:15;26.30;77.80
23411;DHT22;11878;51.774;7.220;2022-08-19T12:47:19;26.40;77.40
23411;DHT22;11878;51.774;7.220;2022-08-19T12:50:22;26.20;73.00
23411;DHT22;11878;51.774;7.220;2022-08-19T12:53:24;26.10;74.80
23411;DHT22;11878;51.774;7.220;2022-08-19T12:56:26;26.00;74.90
23411;DHT22;11878;51.774;7.220;2022-08-19T12:59:28;26.00;75.80
23411;DHT22;11878;51.774;7.220;2022-08-19T13:02:30;26.30;72.40
23411;DHT22;11878;51.774;7.220;2022-08-19T13:05:39;26.30;72.60
23411;DHT22;11878;51.774;7.220;2022-08-19T13:08:41;26.50;70.80
23411;DHT22;11878;51.774;7.220;2022-08-19T13:11:47;26.40;67.40
23411;DHT22;11878;51.774;7.220;2022-08-19T13:14:48;26.40;70.90
23411;DHT22;11878;51.774;7.220;2022-08-19T13:17:52;26.30;69.40
23411;DHT22;11878;51.774;7.220;2022-08-19T13:20:54;26.60;68.60
23411;DHT22;11878;51.774;7.220;2022-08-19T13:23:56;26.70;67.90
23411;DHT22;11878;51.774;7.220;2022-08-19T13:27:00;26.80;67.60
23411;DHT22;11878;51.774;7.220;2022-08-19T13:30:04;27.10;66.40
23411;DHT22;11878;51.774;7.220;2022-08-19T13:33:35;26.90;63.70
23411;DHT22;11878;51.774;7.220;2022-08-19T13:36:38;26.60;63.70
23411;DHT22;11878;51.774;7.220;2022-08-19T13:39:40;26.50;62.80
23411;DHT22;11878;51.774;7.220;2022-08-19T13:42:43;26.70;66.20
23411;DHT22;11878;51.774;7.220;2022-08-19T13:45:45;26.80;63.50
23411;DHT22;11878;51.774;7.220;2022-08-19T13:48:47;26.80;63.20
23411;DHT22;11878;51.774;7.220;2022-08-19T13:51:49;26.90;62.70
23411;DHT22;11878;51.774;7.220;2022-08-19T13:54:51;27.00;59.30
23411;DHT22;11878;51.774;7.220;2022-08-19T13:57:55;27.00;60.90
23411;DHT22;11878;51.774;7.220;2022-08-19T14:00:57;26.90;62.90
23411;DHT22;11878;51.774;7.220;2022-08-19T14:04:01;26.60;62.10
23411;DHT22;11878;51.774;7.220;2022-08-19T14:07:03;26.90;63.40
23411;DHT22;11878;51.774;7.220;2022-08-19T14:10:08;26.90;63.10
23411;DHT22;11878;51.774;7.220;2022-08-19T14:13:12;26.30;64.60
23411;DHT22;11878;51.774;7.220;2022-08-19T14:16:14;26.20;65.20
23411;DHT22;11878;51.774;7.220;2022-08-19T14:19:16;26.20;66.40
23411;DHT22;11878;51.774;7.220;2022-08-19T14:22:18;25.90;65.60
23411;DHT22;11878;51.774;7.220;2022-08-19T14:25:25;25.80;68.00
23411;DHT22;11878;51.774;7.220;2022-08-19T14:28:27;26.00;67.40
23411;DHT22;11878;51.774;7.220;2022-08-19T14:31:29;26.60;67.30
23411;DHT22;11878;51.774;7.220;2022-08-19T14:34:31;26.60;64.80
23411;DHT22;11878;51.774;7.220;2022-08-19T14:37:35;26.40;65.20
23411;DHT22;11878;51.774;7.220;2022-08-19T14:40:46;26.30;67.10
23411;DHT22;11878;51.774;7.220;2022-08-19T14:43:51;27.20;65.40
23411;DHT22;11878;51.774;7.220;2022-08-19T14:46:53;27.60;61.80
23411;DHT22;11878;51.774;7.220;2022-08-19T14:49:55;27.60;61.50
23411;DHT22;11878;51.774;7.220;2022-08-19T14:53:05;27.60;60.40
23411;DHT22;11878;51.774;7.220;2022-08-19T14:56:16;27.20;59.30
23411;DHT22;11878;51.774;7.220;2022-08-19T14:59:19;27.10;60.80
23411;DHT22;11878;51.774;7.220;2022-08-19T15:02:20;26.90;60.50
23411;DHT22;11878;51.774;7.220;2022-08-19T15:05:35;26.70;63.10
23411;DHT22;11878;51.774;7.220;2022-08-19T15:08:39;26.30;63.50
23411;DHT22;11878;51.774;7.220;2022-08-19T15:11:42;26.00;65.50
23411;DHT22;11878;51.774;7.220;2022-08-19T15:14:44;25.80;67.00
23411;DHT22;11878;51.774;7.220;2022-08-19T15:17:54;25.90;68.60
23411;DHT22;11878;51.774;7.220;2022-08-19T15:20:56;25.90;68.50
23411;DHT22;11878;51.774;7.220;2022-08-19T15:23:59;25.90;67.60
23411;DHT22;11878;51.774;7.220;2022-08-19T15:27:02;26.00;67.30
23411;DHT22;11878;51.774;7.220;2022-08-19T15:30:05;26.10;67.40
23411;DHT22;11878;51.774;7.220;2022-08-19T15:33:08;26.10;67.20
23411;DHT22;11878;51.774;7.220;2022-08-19T15:36:11;26.00;66.70
23411;DHT22;11878;51.774;7.220;2022-08-19T15:39:18;26.10;65.40
23411;DHT22;11878;51.774;7.220;2022-08-19T15:42:20;26.00;64.40
23411;DHT22;11878;51.774;7.220;2022-08-19T15:45:30;26.00;63.70
23411;DHT22;11878;51.774;7.220;2022-08-19T15:48:36;26.10;64.50
23411;DHT22;11878;51.774;7.220;2022-08-19T15:51:40;26.00;60.80
23411;DHT22;11878;51.774;7.220;2022-08-19T15:54:43;26.10;61.90
23411;DHT22;11878;51.774;7.220;2022-08-19T15:57:45;26.30;62.30
23411;DHT22;11878;51.774;7.220;2022-08-19T16:01:06;26.30;59.70
23411;DHT22;11878;51.774;7.220;2022-08-19T16:04:28;26.30;60.60
23411;DHT22;11878;51.774;7.220;2022-08-19T16:07:48;26.50;61.30
23411;DHT22;11878;51.774;7.220;2022-08-19T16:10:51;26.60;60.40
23411;DHT22;11878;51.774;7.220;2022-08-19T16:13:53;26.50;60.90
23411;DHT22;11878;51.774;7.220;2022-08-19T16:16:55;26.50;61.60
23411;DHT22;11878;51.774;7.220;2022-08-19T16:19:57;26.30;62.00
23411;DHT22;11878;51.774;7.220;2022-08-19T16:22:59;26.30;61.70
23411;DHT22;11878;51.774;7.220;2022-08-19T16:26:01;26.00;61.20
23411;DHT22;11878;51.774;7.220;2022-08-19T16:29:04;26.00;61.70
23411;DHT22;11878;51.774;7.220;2022-08-19T16:32:13;26.10;61.70
23411;DHT22;11878;51.774;7.220;2022-08-19T16:35:15;26.10;60.90
23411;DHT22;11878;51.774;7.220;2022-08-19T16:38:17;26.10;61.40
23411;DHT22;11878;51.774;7.220;2022-08-19T16:41:20;26.00;61.00
23411;DHT22;11878;51.774;7.220;2022-08-19T16:44:22;25.90;61.90
23411;DHT22;11878;51.774;7.220;2022-08-19T16:47:24;25.90;62.30
23411;DHT22;11878;51.774;7.220;2022-08-19T16:50:26;25.90;63.30
23411;DHT22;11878;51.774;7.220;2022-08-19T16:53:47;25.70;62.80
23411;DHT22;11878;51.774;7.220;2022-08-19T16:56:50;25.70;64.10
23411;DHT22;11878;51.774;7.220;2022-08-19T16:59:51;25.60;63.80
23411;DHT22;11878;51.774;7.220;2022-08-19T17:02:53;25.70;65.30
23411;DHT22;11878;51.774;7.220;2022-08-19T17:05:57;25.50;65.30
23411;DHT22;11878;51.774;7.220;2022-08-19T17:09:06;25.50;66.20
23411;DHT22;11878;51.774;7.220;2022-08-19T17:12:08;25.50;66.10
23411;DHT22;11878;51.774;7.220;2022-08-19T17:15:10;25.40;67.00
23411;DHT22;11878;51.774;7.220;2022-08-19T17:18:12;25.30;66.90
23411;DHT22;11878;51.774;7.220;2022-08-19T17:21:14;25.30;67.50
23411;DHT22;11878;51.774;7.220;2022-08-19T17:24:16;25.30;67.80
23411;DHT22;11878;51.774;7.220;2022-08-19T17:27:17;25.30;69.10
23411;DHT22;11878;51.774;7.220;2022-08-19T17:30:21;25.20;71.20
23411;DHT22;11878;51.774;7.220;2022-08-19T17:33:23;25.20;73.00
23411;DHT22;11878;51.774;7.220;2022-08-19T17:36:27;25.20;74.20
23411;DHT22;11878;51.774;7.220;2022-08-19T17:39:29;25.20;75.20
23411;DHT22;11878;51.774;7.220;2022-08-19T17:42:40;25.10;75.70
23411;DHT22;11878;51.774;7.220;2022-08-19T17:45:43;25.20;76.00
23411;DHT22;11878;51.774;7.220;2022-08-19T17:48:49;25.10;76.50
23411;DHT22;11878;51.774;7.220;2022-08-19T17:51:53;24.90;77.60
23411;DHT22;11878;51.774;7.220;2022-08-19T17:54:55;24.80;79.10
23411;DHT22;11878;51.774;7.220;2022-08-19T17:57:57;24.70;78.50
23411;DHT22;11878;51.774;7.220;2022-08-19T18:00:59;24.70;78.50
23411;DHT22;11878;51.774;7.220;2022-08-19T18:04:04;24.50;78.70
23411;DHT22;11878;51.774;7.220;2022-08-19T18:07:08;24.50;79.90
23411;DHT22;11878;51.774;7.220;2022-08-19T18:10:10;24.40;80.70
23411;DHT22;11878;51.774;7.220;2022-08-19T18:13:12;24.30;82.00
23411;DHT22;11878;51.774;7.220;2022-08-19T18:16:18;24.30;82.90
23411;DHT22;11878;51.774;7.220;2022-08-19T18:19:23;24.10;83.40
23411;DHT22;11878;51.774;7.220;2022-08-19T18:22:33;24.20;84.10
23411;DHT22;11878;51.774;7.220;2022-08-19T18:25:36;24.20;85.00
23411;DHT22;11878;51.774;7.220;2022-08-19T18:28:44;24.10;86.70
23411;DHT22;11878;51.774;7.220;2022-08-19T18:31:50;24.10;87.30
23411;DHT22;11878;51.774;7.220;2022-08-19T18:34:53;24.00;89.10
23411;DHT22;11878;51.774;7.220;2022-08-19T18:37:58;24.00;90.60
23411;DHT22;11878;51.774;7.220;2022-08-19T18:41:02;24.00;91.10
23411;DHT22;11878;51.774;7.220;2022-08-19T18:44:22;24.00;92.20
23411;DHT22;11878;51.774;7.220;2022-08-19T18:47:42;23.90;92.50
23411;DHT22;11878;51.774;7.220;2022-08-19T18:51:03;23.90;93.40
23411;DHT22;11878;51.774;7.220;2022-08-19T18:54:05;23.80;95.20
23411;DHT22;11878;51.774;7.220;2022-08-19T18:57:07;23.80;95.90
23411;DHT22;11878;51.774;7.220;2022-08-19T19:00:12;23.70;96.80
23411;DHT22;11878;51.774;7.220;2022-08-19T19:03:14;23.60;97.40
23411;DHT22;11878;51.774;7.220;2022-08-19T19:06:19;23.50;98.00
23411;DHT22;11878;51.774;7.220;2022-08-19T19:09:23;23.40;98.10
23411;DHT22;11878;51.774;7.220;2022-08-19T19:12:25;23.50;98.60
23411;DHT22;11878;51.774;7.220;2022-08-19T19:15:30;23.40;98.70
23411;DHT22;11878;51.774;7.220;2022-08-19T19:18:33;23.40;99.40
23411;DHT22;11878;51.774;7.220;2022-08-19T19:21:35;23.30;99.60
23411;DHT22;11878;51.774;7.220;2022-08-19T19:24:38;23.30;99.80
23411;DHT22;11878;51.774;7.220;2022-08-19T19:27:40;23.30;99.90